Flight Track Log - Related Links

Times and Time Zones

All times are in EDT time to prevent confusion due to time zone crossing. See the USC250 flight status page for this flight to view local times or setup timezone preferences in your user account.

Time Position Orientation Groundspeed Altitude Reporting Facility
EDT Latitude Longitude Course Direction KTS MPH feet Rate Location/Type
Tue 11:54:15 PM 40.8405 -74.0762 257° West  Level FlightAware Approximate
Tue 11:55:26 PM 40.8167 -74.2167 270° West 112 129 3,900  Level New York TRACON
Tue 11:56:32 PM 40.8167 -74.2667 237° Southwest 93 107 5,600 1,000 Climbing New York TRACON
Tue 11:57:32 PM 40.8000 -74.3000 246° West 131 151 6,000 200 Climbing New York TRACON
Tue 11:58:32 PM 40.7833 -74.3500 246° West 161 185 6,000  Level New York TRACON
Tue 11:59:26 PM 40.7667 -74.4000 252° West 168 193 6,000  Level New York TRACON
Wed 12:00:26 AM 40.7500 -74.4667 242° Southwest 170 196 6,000  Level New York TRACON
Wed 12:35:44 AM 40.0000 -76.2500 217° Southwest 184 212 6,000  Level Potomac TRACON
Wed 12:36:39 AM 39.9667 -76.2833 191° South 184 212 6,000  Level Potomac TRACON
Wed 12:37:51 AM 39.9000 -76.3000 218° Southwest 185 213 6,000  Level Potomac TRACON
Wed 12:38:45 AM 39.8667 -76.3333 191° South 185 213 6,000  Level Potomac TRACON
Wed 12:39:52 AM 39.8000 -76.3500 207° Southwest 187 215 6,000  Level Potomac TRACON
Wed 12:40:52 AM 39.7500 -76.3833 194° South 189 217 6,000  Level Potomac TRACON
Wed 12:41:59 AM 39.7000 -76.4000 207° Southwest 187 215 6,000 -94 Level Potomac TRACON
Wed 12:43:00 AM 39.6500 -76.4333 194° South 188 216 5,800 -446 Descending Potomac TRACON
Wed 12:44:00 AM 39.6000 -76.4500 207° Southwest 203 234 5,100 -645 Descending Potomac TRACON
Wed 12:45:01 AM 39.5500 -76.4833 194° South 200 230 4,500 -545 Descending Potomac TRACON
Wed 12:46:01 AM 39.5000 -76.5000 207° Southwest 195 224 4,000 -545 Descending Potomac TRACON
Wed 12:47:02 AM 39.4500 -76.5333 194° South 193 222 3,400 -545 Descending Potomac TRACON
Wed 12:48:02 AM 39.4000 -76.5500 194° South 190 219 2,900 -263 Descending Potomac TRACON
Wed 12:48:56 AM 39.3500 -76.5667 218° Southwest 170 196 2,900 -53 Level Potomac TRACON
Wed 12:49:56 AM 39.3167 -76.6000 207° Southwest 170 196 2,800 -300 Descending Potomac TRACON
Wed 12:50:56 AM 39.2667 -76.6333 218° Southwest 174 200 2,300 -600 Descending Potomac TRACON
Wed 12:51:56 AM 39.2333 -76.6667 201° Southwest 155 178 1,600 -750 Descending Potomac TRACON
Wed 12:52:56 AM 39.2000 -76.6833 142° Southeast 142 163 800 -497 Descending Potomac TRACON
Wed 12:54:57 AM 39.1833 -76.6667 142° Southeast 15 17 100 -347 Descending Potomac TRACON

Login

Don't have an account? Register now (free) for customized features, flight alerts, and more!